createdAt,value
2017-09-03T00:00:25.737Z,983.8
2017-09-03T00:01:27.955Z,983.9
2017-09-03T00:02:30.167Z,983.8
2017-09-03T00:03:32.613Z,983.8
2017-09-03T00:04:34.773Z,983.8
2017-09-03T00:05:37.582Z,983.7
2017-09-03T00:06:39.697Z,983.8
2017-09-03T00:07:41.794Z,983.8
2017-09-03T00:08:44.281Z,983.7
2017-09-03T00:09:46.378Z,983.6
2017-09-03T00:10:48.560Z,983.7
2017-09-03T00:11:50.915Z,983.7
2017-09-03T00:12:53.069Z,983.7
2017-09-03T00:13:55.446Z,983.7
2017-09-03T00:14:57.647Z,983.7
2017-09-03T00:15:59.828Z,983.7
2017-09-03T00:17:01.921Z,983.7
2017-09-03T00:18:04.231Z,983.7
2017-09-03T00:19:06.677Z,983.7
2017-09-03T00:20:08.780Z,983.7
2017-09-03T00:21:10.874Z,983.7
2017-09-03T00:22:13.057Z,983.7
2017-09-03T00:23:15.186Z,983.8
2017-09-03T00:24:17.633Z,983.8
2017-09-03T00:25:19.815Z,983.7
2017-09-03T00:26:21.903Z,983.8
2017-09-03T00:27:23.978Z,983.7
2017-09-03T00:28:26.100Z,983.8
2017-09-03T00:29:28.546Z,983.7
2017-09-03T00:30:30.778Z,983.7
2017-09-03T00:31:32.965Z,983.7
2017-09-03T00:32:35.065Z,983.8
2017-09-03T00:33:37.142Z,983.8
2017-09-03T00:34:39.605Z,983.8
2017-09-03T00:35:41.703Z,983.8
2017-09-03T00:36:43.781Z,983.8
2017-09-03T00:37:45.969Z,983.8
2017-09-03T00:38:48.152Z,983.8
2017-09-03T00:39:50.589Z,983.8
2017-09-03T00:40:52.714Z,983.8
2017-09-03T00:41:54.848Z,983.7
2017-09-03T00:42:57.021Z,983.7
2017-09-03T00:43:59.293Z,983.7
2017-09-03T00:45:01.648Z,983.8
2017-09-03T00:46:03.824Z,983.8
2017-09-03T00:47:06.022Z,983.8
2017-09-03T00:48:08.144Z,983.8
2017-09-03T00:49:10.308Z,983.8
2017-09-03T00:50:12.750Z,983.8
2017-09-03T00:51:14.881Z,983.8
2017-09-03T00:52:16.978Z,983.8
2017-09-03T00:53:19.114Z,983.7
2017-09-03T00:54:21.287Z,983.8
2017-09-03T00:55:23.729Z,983.7
2017-09-03T00:56:25.885Z,983.8
2017-09-03T00:57:28.032Z,983.7
2017-09-03T00:58:30.195Z,983.8
2017-09-03T00:59:32.321Z,983.7
2017-09-03T01:00:35.124Z,983.7
2017-09-03T01:01:37.290Z,983.7
2017-09-03T01:02:39.425Z,983.8
2017-09-03T01:03:41.498Z,983.7
2017-09-03T01:04:43.616Z,983.7
2017-09-03T01:05:46.023Z,983.7
2017-09-03T01:06:48.184Z,983.7
2017-09-03T01:07:50.355Z,983.7
2017-09-03T01:08:52.499Z,983.7
2017-09-03T01:09:54.577Z,983.7
2017-09-03T01:10:57.107Z,983.7
2017-09-03T01:11:59.267Z,983.7
2017-09-03T01:13:01.329Z,983.7
2017-09-03T01:14:03.552Z,983.7
2017-09-03T01:15:05.637Z,983.7
2017-09-03T01:16:08.051Z,983.7
2017-09-03T01:17:10.184Z,983.7
2017-09-03T01:18:12.277Z,983.6
2017-09-03T01:19:14.404Z,983.7
2017-09-03T01:20:16.580Z,983.7
2017-09-03T01:21:19.102Z,983.7
2017-09-03T01:22:21.164Z,983.7
2017-09-03T01:23:23.277Z,983.7
2017-09-03T01:24:25.375Z,983.7
2017-09-03T01:25:27.504Z,983.7
2017-09-03T01:26:30.019Z,983.7
2017-09-03T01:27:32.069Z,983.7
2017-09-03T01:28:34.208Z,983.8
2017-09-03T01:29:36.526Z,983.8
2017-09-03T01:30:38.614Z,983.8
2017-09-03T01:31:42.468Z,983.8
2017-09-03T01:32:44.679Z,983.8
2017-09-03T01:33:46.790Z,983.8
2017-09-03T01:34:48.948Z,983.8
2017-09-03T01:35:51.235Z,983.8
2017-09-03T01:36:53.688Z,983.8
2017-09-03T01:37:55.777Z,983.8
2017-09-03T01:38:57.966Z,983.8
2017-09-03T01:40:00.151Z,983.7
2017-09-03T01:41:02.207Z,983.7
2017-09-03T01:42:04.646Z,983.8
2017-09-03T01:43:06.762Z,983.7
2017-09-03T01:44:08.914Z,983.7
2017-09-03T01:45:11.059Z,983.7
2017-09-03T01:46:13.138Z,983.7
2017-09-03T01:47:15.556Z,983.6
2017-09-03T01:48:17.700Z,983.6
2017-09-03T01:49:19.822Z,983.7
2017-09-03T01:50:21.967Z,983.7
2017-09-03T01:51:24.153Z,983.7
2017-09-03T01:52:26.553Z,983.7
2017-09-03T01:53:28.745Z,983.7
2017-09-03T01:54:30.873Z,983.7
2017-09-03T01:55:33.020Z,983.6
2017-09-03T01:56:35.795Z,983.7
2017-09-03T01:57:38.192Z,983.6
2017-09-03T01:58:40.260Z,983.7
2017-09-03T01:59:42.408Z,983.6
2017-09-03T02:00:44.479Z,983.7
2017-09-03T02:01:46.653Z,983.6
2017-09-03T02:02:49.022Z,983.6
2017-09-03T02:03:51.088Z,983.7
2017-09-03T02:04:53.147Z,983.6
2017-09-03T02:05:55.328Z,983.6
2017-09-03T02:06:57.445Z,983.7
2017-09-03T02:08:00.063Z,983.6
2017-09-03T02:09:02.156Z,983.6
2017-09-03T02:10:04.252Z,983.6
2017-09-03T02:11:06.277Z,983.6
2017-09-03T02:12:08.337Z,983.6
2017-09-03T02:13:10.788Z,983.6
2017-09-03T02:14:12.887Z,983.6
2017-09-03T02:15:15.123Z,983.6
2017-09-03T02:16:17.241Z,983.6
2017-09-03T02:17:19.325Z,983.5
2017-09-03T02:18:21.730Z,983.6
2017-09-03T02:19:23.810Z,983.5
2017-09-03T02:20:25.991Z,983.5
2017-09-03T02:21:28.155Z,983.5
2017-09-03T02:22:30.331Z,983.5
2017-09-03T02:23:32.789Z,983.5
2017-09-03T02:24:34.930Z,983.5
2017-09-03T02:25:37.083Z,983.5
2017-09-03T02:26:39.243Z,983.4
2017-09-03T02:27:41.377Z,983.5
2017-09-03T02:28:43.757Z,983.5
2017-09-03T02:29:45.871Z,983.4
2017-09-03T02:30:48.053Z,983.4
2017-09-03T02:31:50.197Z,983.4
2017-09-03T02:32:52.368Z,983.4
2017-09-03T02:33:54.898Z,983.3
2017-09-03T02:34:57.041Z,983.3
2017-09-03T02:35:59.205Z,983.3
2017-09-03T02:37:01.414Z,983.4
2017-09-03T02:38:03.554Z,983.3
2017-09-03T02:39:06.005Z,983.4
2017-09-03T02:40:08.119Z,983.3
2017-09-03T02:41:10.256Z,983.3
2017-09-03T02:42:12.447Z,983.3
2017-09-03T02:43:14.484Z,983.4
2017-09-03T02:44:16.954Z,983.4
2017-09-03T02:45:19.050Z,983.4
2017-09-03T02:46:21.228Z,983.4
2017-09-03T02:47:23.303Z,983.4
2017-09-03T02:48:25.452Z,983.4
2017-09-03T02:49:27.968Z,983.3
2017-09-03T02:50:30.047Z,983.4
2017-09-03T02:51:32.280Z,983.3
2017-09-03T02:52:34.372Z,983.3
2017-09-03T02:53:36.520Z,983.3
2017-09-03T02:54:39.142Z,983.3
2017-09-03T02:55:41.311Z,983.3
2017-09-03T02:56:43.420Z,983.4
2017-09-03T02:57:45.521Z,983.3
2017-09-03T02:58:47.624Z,983.3
2017-09-03T02:59:50.169Z,983.3
2017-09-03T03:00:52.364Z,983.3
2017-09-03T03:01:54.470Z,983.3
2017-09-03T03:02:56.627Z,983.3
2017-09-03T03:03:58.752Z,983.3
2017-09-03T03:05:01.258Z,983.3
2017-09-03T03:06:03.366Z,983.3
2017-09-03T03:07:05.486Z,983.4
2017-09-03T03:08:07.566Z,983.3
2017-09-03T03:09:09.681Z,983.4
2017-09-03T03:10:12.088Z,983.4
2017-09-03T03:11:14.198Z,983.4
2017-09-03T03:12:16.384Z,983.4
2017-09-03T03:13:18.553Z,983.4
2017-09-03T03:14:20.652Z,983.3
2017-09-03T03:15:23.028Z,983.3
2017-09-03T03:16:25.148Z,983.4
2017-09-03T03:17:27.288Z,983.4
2017-09-03T03:18:29.356Z,983.4
2017-09-03T03:19:31.514Z,983.4
2017-09-03T03:20:34.001Z,983.3
2017-09-03T03:21:36.130Z,983.3
2017-09-03T03:22:38.260Z,983.3
2017-09-03T03:23:40.399Z,983.3
2017-09-03T03:24:42.624Z,983.4
2017-09-03T03:25:45.030Z,983.3
2017-09-03T03:26:47.148Z,983.3
2017-09-03T03:27:49.262Z,983.3
2017-09-03T03:28:51.371Z,983.3
2017-09-03T03:29:53.510Z,983.3
2017-09-03T03:30:55.945Z,983.3
2017-09-03T03:31:58.069Z,983.3
2017-09-03T03:33:00.250Z,983.3
2017-09-03T03:34:02.320Z,983.3
2017-09-03T03:35:04.355Z,983.3
2017-09-03T03:36:06.809Z,983.3
2017-09-03T03:37:09.040Z,983.4
2017-09-03T03:38:11.225Z,983.3
2017-09-03T03:39:13.304Z,983.4
2017-09-03T03:40:15.465Z,983.4
2017-09-03T03:41:17.971Z,983.3
2017-09-03T03:42:20.017Z,983.3
2017-09-03T03:43:22.143Z,983.3
2017-09-03T03:44:24.262Z,983.2
2017-09-03T03:45:26.392Z,983.2
2017-09-03T03:46:28.798Z,983.2
2017-09-03T03:47:30.920Z,983.2
2017-09-03T03:48:33.009Z,983.2
2017-09-03T03:49:35.095Z,983.3
2017-09-03T03:50:37.256Z,983.2
2017-09-03T03:51:39.605Z,983.3
2017-09-03T03:52:41.709Z,983.3
2017-09-03T03:53:43.862Z,983.2
2017-09-03T03:54:45.974Z,983.2
2017-09-03T03:55:48.166Z,983.2
2017-09-03T03:56:50.660Z,983.2
2017-09-03T03:57:52.996Z,983.2
2017-09-03T03:58:55.126Z,983.2
2017-09-03T03:59:57.251Z,983.1
2017-09-03T04:00:59.351Z,983.2
2017-09-03T04:02:01.884Z,983.3
2017-09-03T04:03:03.991Z,983.2
2017-09-03T04:04:06.094Z,983.3
2017-09-03T04:05:08.310Z,983.3
2017-09-03T04:06:10.367Z,983.3
2017-09-03T04:07:12.846Z,983.2
2017-09-03T04:08:15.000Z,983.2
2017-09-03T04:09:17.150Z,983.2
2017-09-03T04:10:19.303Z,983.2
2017-09-03T04:11:21.515Z,983.3
2017-09-03T04:12:23.860Z,983.2
2017-09-03T04:13:25.940Z,983.1
2017-09-03T04:14:28.069Z,983.2
2017-09-03T04:15:30.238Z,983.2
2017-09-03T04:16:32.316Z,983.1
2017-09-03T04:17:34.788Z,983.2
2017-09-03T04:18:36.934Z,983.2
2017-09-03T04:19:39.151Z,983.2
2017-09-03T04:20:41.298Z,983.1
2017-09-03T04:21:43.459Z,983.1
2017-09-03T04:22:45.924Z,983.1
2017-09-03T04:23:48.096Z,983.2
2017-09-03T04:24:50.299Z,983.1
2017-09-03T04:25:52.660Z,983.1
2017-09-03T04:26:54.706Z,983.1
2017-09-03T04:27:57.183Z,983.1
2017-09-03T04:28:59.253Z,983.1
2017-09-03T04:30:01.382Z,983.1
2017-09-03T04:31:03.452Z,983.1
2017-09-03T04:32:05.677Z,983.1
2017-09-03T04:33:08.175Z,983.2
2017-09-03T04:34:10.299Z,983.2
2017-09-03T04:35:12.431Z,983.2
2017-09-03T04:36:14.464Z,983.2
2017-09-03T04:37:16.524Z,983.2
2017-09-03T04:38:19.049Z,983.1
2017-09-03T04:39:21.186Z,983.1
2017-09-03T04:40:23.294Z,983.2
2017-09-03T04:41:25.547Z,983.2
2017-09-03T04:42:27.636Z,983.2
2017-09-03T04:43:30.081Z,983.1
2017-09-03T04:44:33.004Z,983.1
2017-09-03T04:45:35.173Z,983.1
2017-09-03T04:46:37.288Z,983.1
2017-09-03T04:47:39.382Z,983.1
2017-09-03T04:48:41.860Z,983.1
2017-09-03T04:49:43.989Z,983.2
2017-09-03T04:50:46.128Z,983.2
2017-09-03T04:51:48.209Z,983.2
2017-09-03T04:52:50.321Z,983.1
2017-09-03T04:53:52.877Z,983.1
2017-09-03T04:54:55.132Z,983
2017-09-03T04:55:57.203Z,983
2017-09-03T04:56:59.244Z,983
2017-09-03T04:58:01.295Z,983
2017-09-03T04:59:03.728Z,983
2017-09-03T05:00:05.891Z,983.1
2017-09-03T05:01:07.966Z,983.1
2017-09-03T05:02:10.142Z,983.1
2017-09-03T05:03:12.234Z,983.1
2017-09-03T05:04:14.812Z,983.1
2017-09-03T05:05:16.990Z,983.1
2017-09-03T05:06:19.205Z,983
2017-09-03T05:07:21.385Z,982.9
2017-09-03T05:08:23.553Z,983
2017-09-03T05:09:26.005Z,983
2017-09-03T05:10:28.119Z,983
2017-09-03T05:11:30.245Z,983
2017-09-03T05:12:32.349Z,983
2017-09-03T05:13:34.486Z,983
2017-09-03T05:14:37.051Z,982.9
2017-09-03T05:15:39.174Z,982.9
2017-09-03T05:16:41.339Z,982.9
2017-09-03T05:17:43.451Z,983
2017-09-03T05:18:45.554Z,983
2017-09-03T05:19:48.196Z,983
2017-09-03T05:20:50.337Z,983
2017-09-03T05:21:52.439Z,983
2017-09-03T05:22:54.571Z,983
2017-09-03T05:23:56.730Z,982.9
2017-09-03T05:24:59.159Z,983
2017-09-03T05:26:01.249Z,983
2017-09-03T05:27:03.293Z,983
2017-09-03T05:28:05.412Z,983
2017-09-03T05:29:07.459Z,982.9
2017-09-03T05:30:09.920Z,982.9
2017-09-03T05:31:12.039Z,983
2017-09-03T05:32:14.145Z,983
2017-09-03T05:33:16.348Z,982.9
2017-09-03T05:34:18.426Z,983
2017-09-03T05:35:21.052Z,983
2017-09-03T05:36:23.201Z,983
2017-09-03T05:37:25.298Z,983
2017-09-03T05:38:27.440Z,983.1
2017-09-03T05:39:29.622Z,983.1
2017-09-03T05:40:31.997Z,983.1
2017-09-03T05:41:34.063Z,983
2017-09-03T05:42:36.176Z,983.1
2017-09-03T05:43:38.388Z,983.1
2017-09-03T05:44:40.484Z,983.1
2017-09-03T05:45:42.955Z,983.1
2017-09-03T05:46:45.077Z,983.1
2017-09-03T05:47:47.185Z,983.1
2017-09-03T05:48:49.377Z,983.1
2017-09-03T05:49:51.631Z,983.1
2017-09-03T05:50:54.184Z,983.1
2017-09-03T05:51:56.375Z,983.1
2017-09-03T05:52:58.501Z,983.1
2017-09-03T05:54:00.603Z,983.2
2017-09-03T05:55:02.773Z,983.1
2017-09-03T05:56:05.416Z,983.1
2017-09-03T05:57:07.607Z,983.1
2017-09-03T05:58:09.749Z,983.1
2017-09-03T05:59:11.798Z,983.1
2017-09-03T06:00:13.907Z,983.1
2017-09-03T06:01:16.357Z,983.2
2017-09-03T06:02:18.482Z,983.2
2017-09-03T06:03:20.548Z,983.2
2017-09-03T06:04:22.742Z,983.2
2017-09-03T06:05:24.842Z,983.3
2017-09-03T06:06:27.335Z,983.2
2017-09-03T06:07:29.507Z,983.2
2017-09-03T06:08:31.670Z,983.3
2017-09-03T06:09:33.833Z,983.3
2017-09-03T06:10:35.973Z,983.2
2017-09-03T06:11:38.446Z,983.3
2017-09-03T06:12:40.503Z,983.3
2017-09-03T06:13:42.633Z,983.1
2017-09-03T06:14:44.760Z,983.1
2017-09-03T06:15:46.913Z,983
2017-09-03T06:16:49.377Z,983.1
2017-09-03T06:17:51.433Z,983.3
2017-09-03T06:18:53.564Z,983.3
2017-09-03T06:19:56.626Z,983.2
2017-09-03T06:20:58.770Z,983.2
2017-09-03T06:22:01.378Z,983.2
2017-09-03T06:23:03.522Z,983.2
2017-09-03T06:24:05.674Z,983.3
2017-09-03T06:25:07.798Z,983.2
2017-09-03T06:26:09.874Z,983.4
2017-09-03T06:27:12.351Z,983.3
2017-09-03T06:28:14.458Z,983.4
2017-09-03T06:29:16.471Z,983.4
2017-09-03T06:30:18.572Z,983.4
2017-09-03T06:31:20.745Z,983.3
2017-09-03T06:32:23.230Z,983.4
2017-09-03T06:33:25.350Z,983.3
2017-09-03T06:34:27.434Z,983.2
2017-09-03T06:35:29.613Z,983.3
2017-09-03T06:36:31.703Z,983.3
2017-09-03T06:37:34.139Z,983.3
2017-09-03T06:38:36.242Z,983.3
2017-09-03T06:39:38.374Z,983.4
2017-09-03T06:40:40.491Z,983.4
2017-09-03T06:41:42.551Z,983.4
2017-09-03T06:42:45.090Z,983.4
2017-09-03T06:43:47.297Z,983.4
2017-09-03T06:44:49.458Z,983.4
2017-09-03T06:45:51.559Z,983.4
2017-09-03T06:46:53.735Z,983.3
2017-09-03T06:47:56.134Z,983.3
2017-09-03T06:48:58.318Z,983.2
2017-09-03T06:50:00.462Z,983.1
2017-09-03T06:51:02.560Z,983.2
2017-09-03T06:52:04.660Z,983.2
2017-09-03T06:53:07.121Z,983.3
2017-09-03T06:54:09.258Z,983.3
2017-09-03T06:55:11.450Z,983.3
2017-09-03T06:56:13.912Z,983.5
2017-09-03T06:57:16.083Z,983.4
2017-09-03T06:58:18.501Z,983.4
2017-09-03T06:59:20.728Z,983.4
2017-09-03T07:00:22.884Z,983.5
2017-09-03T07:01:24.989Z,983.5
2017-09-03T07:02:27.117Z,983.4
2017-09-03T07:03:29.569Z,983.3
2017-09-03T07:04:31.642Z,983.4
2017-09-03T07:05:33.698Z,983.3
2017-09-03T07:06:35.903Z,983.3
2017-09-03T07:07:38.103Z,983.3
2017-09-03T07:08:40.557Z,983.4
2017-09-03T07:09:42.600Z,983.4
2017-09-03T07:10:44.775Z,983.5
2017-09-03T07:11:46.886Z,983.4
2017-09-03T07:12:49.059Z,983.6
2017-09-03T07:13:51.599Z,983.6
2017-09-03T07:14:53.713Z,983.6
2017-09-03T07:15:55.863Z,983.5
2017-09-03T07:16:57.921Z,983.5
2017-09-03T07:17:59.966Z,983.7
2017-09-03T07:19:02.386Z,983.6
2017-09-03T07:20:04.578Z,983.6
2017-09-03T07:21:06.733Z,983.6
2017-09-03T07:22:08.845Z,983.6
2017-09-03T07:23:10.955Z,983.7
2017-09-03T07:24:13.446Z,983.7
2017-09-03T07:25:15.614Z,983.8
2017-09-03T07:26:17.710Z,983.7
2017-09-03T07:27:19.814Z,983.8
2017-09-03T07:28:21.951Z,983.8
2017-09-03T07:29:24.410Z,983.8
2017-09-03T07:30:26.519Z,983.7
2017-09-03T07:31:28.645Z,983.7
2017-09-03T07:32:30.792Z,983.6
2017-09-03T07:33:32.949Z,983.7
2017-09-03T07:34:35.406Z,983.9
2017-09-03T07:35:37.475Z,983.9
2017-09-03T07:36:39.583Z,983.6
2017-09-03T07:37:41.719Z,983.7
2017-09-03T07:38:43.811Z,983.7
2017-09-03T07:39:46.278Z,983.7
2017-09-03T07:40:48.339Z,983.8
2017-09-03T07:41:50.551Z,983.9
2017-09-03T07:42:52.643Z,983.9
2017-09-03T07:43:54.883Z,983.8
2017-09-03T07:44:57.380Z,983.7
2017-09-03T07:45:59.527Z,983.7
2017-09-03T07:47:01.668Z,983.6
2017-09-03T07:48:04.026Z,983.7
2017-09-03T07:49:06.119Z,983.6
2017-09-03T07:50:08.503Z,983.7
2017-09-03T07:51:10.694Z,983.6
2017-09-03T07:52:12.751Z,983.7
2017-09-03T07:53:14.923Z,983.7
2017-09-03T07:54:17.188Z,983.8
2017-09-03T07:55:19.666Z,983.7
2017-09-03T07:56:21.856Z,983.8
2017-09-03T07:57:23.990Z,983.7
2017-09-03T07:58:26.137Z,983.6
2017-09-03T07:59:28.343Z,983.6
2017-09-03T08:00:30.851Z,983.7
2017-09-03T08:01:32.910Z,983.6
2017-09-03T08:02:35.109Z,983.7
2017-09-03T08:03:37.220Z,983.8
2017-09-03T08:04:39.303Z,983.7
2017-09-03T08:05:41.728Z,983.7
2017-09-03T08:06:43.905Z,983.6
2017-09-03T08:07:46.198Z,983.6
2017-09-03T08:08:48.367Z,983.6
2017-09-03T08:09:50.572Z,983.5
2017-09-03T08:10:53.165Z,983.6
2017-09-03T08:11:55.547Z,983.6
2017-09-03T08:12:57.697Z,983.8
2017-09-03T08:13:59.767Z,983.6
2017-09-03T08:15:02.073Z,983.5
2017-09-03T08:16:04.570Z,983.6
2017-09-03T08:17:06.716Z,983.6
2017-09-03T08:18:08.846Z,983.6
2017-09-03T08:19:11.048Z,983.7
2017-09-03T08:20:13.175Z,983.7
2017-09-03T08:21:15.708Z,983.6
2017-09-03T08:22:17.758Z,983.6
2017-09-03T08:23:19.887Z,983.6
2017-09-03T08:24:21.940Z,983.7
2017-09-03T08:25:24.125Z,983.6
2017-09-03T08:26:26.664Z,983.6
2017-09-03T08:27:28.736Z,983.6
2017-09-03T08:28:30.963Z,983.5
2017-09-03T08:29:33.173Z,983.7
2017-09-03T08:30:35.355Z,983.5
2017-09-03T08:31:39.299Z,983.6
2017-09-03T08:32:41.447Z,983.8
2017-09-03T08:33:43.508Z,983.8
2017-09-03T08:34:45.648Z,983.6
2017-09-03T08:35:47.812Z,983.4
2017-09-03T08:36:50.386Z,983.4
2017-09-03T08:37:52.578Z,983.5
2017-09-03T08:38:54.706Z,983.4
2017-09-03T08:39:56.818Z,983.4
2017-09-03T08:40:59.039Z,983.5
2017-09-03T08:42:01.765Z,983.5
2017-09-03T08:43:03.829Z,983.6
2017-09-03T08:44:05.938Z,983.6
2017-09-03T08:45:08.026Z,983.5
2017-09-03T08:46:10.193Z,983.6
2017-09-03T08:47:12.706Z,983.4
2017-09-03T08:48:14.880Z,983.6
2017-09-03T08:49:17.013Z,983.5
2017-09-03T08:50:19.233Z,983.5
2017-09-03T08:51:21.444Z,983.5
2017-09-03T08:52:23.968Z,983.5
2017-09-03T08:53:26.118Z,983.6
2017-09-03T08:54:28.278Z,983.8
2017-09-03T08:55:30.463Z,983.7
2017-09-03T08:56:32.572Z,983.5
2017-09-03T08:57:35.094Z,983.6
2017-09-03T08:58:37.208Z,983.6
2017-09-03T08:59:39.315Z,983.5
2017-09-03T09:00:41.466Z,983.5
2017-09-03T09:01:43.614Z,983.4
2017-09-03T09:02:46.118Z,983.5
2017-09-03T09:03:48.244Z,983.5
2017-09-03T09:04:50.568Z,983.7
2017-09-03T09:05:52.649Z,983.4
2017-09-03T09:06:54.782Z,983.4
2017-09-03T09:07:57.467Z,983.6
2017-09-03T09:09:00.210Z,983.4
2017-09-03T09:10:02.296Z,983.2
2017-09-03T09:11:04.445Z,983.4
2017-09-03T09:12:06.642Z,983.5
2017-09-03T09:13:09.129Z,983.3
2017-09-03T09:14:11.359Z,983.3
2017-09-03T09:15:13.675Z,983.2
2017-09-03T09:16:15.871Z,983.5
2017-09-03T09:17:18.038Z,983.3
2017-09-03T09:18:20.442Z,983.3
2017-09-03T09:19:22.660Z,983.3
2017-09-03T09:20:24.769Z,983.3
2017-09-03T09:21:26.974Z,983.3
2017-09-03T09:22:29.076Z,983.3
2017-09-03T09:23:31.574Z,983.2
2017-09-03T09:24:33.728Z,983.2
2017-09-03T09:25:35.830Z,983.2
2017-09-03T09:26:38.004Z,983.1
2017-09-03T09:27:40.210Z,983.3
2017-09-03T09:28:42.729Z,983.2
2017-09-03T09:29:44.861Z,983.2
2017-09-03T09:30:46.958Z,983.2
2017-09-03T09:31:49.196Z,983
2017-09-03T09:32:51.311Z,983.2
2017-09-03T09:33:53.740Z,983.4
2017-09-03T09:34:55.927Z,983.2
2017-09-03T09:35:58.204Z,983.2
2017-09-03T09:37:00.572Z,983.2
2017-09-03T09:38:02.764Z,983.1
2017-09-03T09:39:05.208Z,982.9
2017-09-03T09:40:07.432Z,982.9
2017-09-03T09:41:09.518Z,983.2
2017-09-03T09:42:11.614Z,983
2017-09-03T09:43:13.821Z,983.1
2017-09-03T09:44:16.211Z,983.3
2017-09-03T09:45:18.419Z,983.3
2017-09-03T09:46:20.522Z,983.1
2017-09-03T09:47:22.654Z,982.8
2017-09-03T09:48:24.750Z,982.7
2017-09-03T09:49:28.647Z,982.7
2017-09-03T09:50:30.760Z,982.7
2017-09-03T09:51:32.874Z,983
2017-09-03T09:52:34.976Z,983
2017-09-03T09:53:37.112Z,982.8
2017-09-03T09:54:39.640Z,982.7
2017-09-03T09:55:41.724Z,982.7
2017-09-03T09:56:43.850Z,982.6
2017-09-03T09:57:45.944Z,982.7
2017-09-03T09:58:48.075Z,982.7
2017-09-03T09:59:50.445Z,982.7
2017-09-03T10:00:52.579Z,982.6
2017-09-03T10:01:54.667Z,982.9
2017-09-03T10:02:56.827Z,982.7
2017-09-03T10:03:58.959Z,982.7
2017-09-03T10:05:01.287Z,982.7
2017-09-03T10:06:03.548Z,982.9
2017-09-03T10:07:05.687Z,982.7
2017-09-03T10:08:07.793Z,982.8
2017-09-03T10:09:09.849Z,982.7
2017-09-03T10:10:12.374Z,982.7
2017-09-03T10:11:14.469Z,983
2017-09-03T10:12:16.571Z,982.6
2017-09-03T10:13:18.702Z,982.7
2017-09-03T10:14:20.884Z,982.8
2017-09-03T10:15:23.470Z,982.6
2017-09-03T10:16:25.526Z,982.3
2017-09-03T10:17:27.668Z,982.2
2017-09-03T10:18:29.726Z,982.2
2017-09-03T10:19:31.820Z,982.2
2017-09-03T10:20:34.377Z,982.3
2017-09-03T10:21:36.480Z,982.2
2017-09-03T10:22:38.556Z,982.2
2017-09-03T10:23:40.650Z,982.2
2017-09-03T10:24:42.802Z,982.2
2017-09-03T10:25:46.812Z,982.2
2017-09-03T10:26:48.927Z,982.2
2017-09-03T10:27:51.035Z,982.3
2017-09-03T10:28:53.183Z,982.2
2017-09-03T10:29:55.304Z,982.2
2017-09-03T10:30:57.868Z,982.2
2017-09-03T10:31:59.976Z,982.2
2017-09-03T10:33:02.084Z,982.2
2017-09-03T10:34:04.246Z,982.2
2017-09-03T10:35:06.357Z,982.2
2017-09-03T10:36:08.871Z,982.2
2017-09-03T10:37:11.080Z,982.1
2017-09-03T10:38:13.197Z,982.1
2017-09-03T10:39:15.448Z,982.1
2017-09-03T10:40:17.591Z,982.1
2017-09-03T10:41:20.095Z,982
2017-09-03T10:42:22.206Z,982.1
2017-09-03T10:43:24.328Z,982.1
2017-09-03T10:44:26.455Z,982.1
2017-09-03T10:45:28.861Z,982
2017-09-03T10:46:31.401Z,982
2017-09-03T10:47:33.488Z,981.9
2017-09-03T10:48:35.625Z,981.9
2017-09-03T10:49:37.798Z,981.9
2017-09-03T10:50:39.944Z,982
2017-09-03T10:51:42.332Z,981.9
2017-09-03T10:52:44.488Z,981.9
2017-09-03T10:53:46.625Z,982
2017-09-03T10:54:48.774Z,981.9
2017-09-03T10:55:50.936Z,981.9
2017-09-03T10:56:53.304Z,982
2017-09-03T10:57:55.445Z,981.9
2017-09-03T10:58:57.572Z,981.9
2017-09-03T10:59:59.686Z,981.9
2017-09-03T11:01:01.804Z,981.9
2017-09-03T11:02:04.257Z,981.9
2017-09-03T11:03:06.380Z,981.8
2017-09-03T11:04:08.510Z,981.9
2017-09-03T11:05:10.652Z,981.8
2017-09-03T11:06:12.850Z,981.8
2017-09-03T11:07:15.218Z,981.8
2017-09-03T11:08:17.380Z,981.8
2017-09-03T11:09:19.498Z,981.9
2017-09-03T11:10:21.636Z,981.9
2017-09-03T11:11:23.896Z,981.8
2017-09-03T11:12:26.489Z,981.8
2017-09-03T11:13:28.586Z,981.8
2017-09-03T11:14:30.711Z,981.9
2017-09-03T11:15:32.801Z,981.8
2017-09-03T11:16:34.963Z,981.8
2017-09-03T11:17:37.385Z,981.9
2017-09-03T11:18:39.470Z,981.8
2017-09-03T11:19:41.673Z,981.7
2017-09-03T11:20:43.790Z,981.7
2017-09-03T11:21:46.001Z,981.8
2017-09-03T11:22:48.573Z,981.8
2017-09-03T11:23:50.736Z,981.8
2017-09-03T11:24:52.823Z,981.8
2017-09-03T11:25:55.008Z,981.8
2017-09-03T11:26:57.157Z,981.7
2017-09-03T11:27:59.606Z,981.7
2017-09-03T11:29:01.699Z,981.7
2017-09-03T11:30:03.889Z,981.8
2017-09-03T11:31:05.954Z,981.7
2017-09-03T11:32:08.105Z,981.7
2017-09-03T11:33:10.664Z,981.8
2017-09-03T11:34:12.807Z,981.8
2017-09-03T11:35:14.894Z,981.7
2017-09-03T11:36:17.000Z,981.7
2017-09-03T11:37:19.120Z,981.6
2017-09-03T11:38:21.605Z,981.7
2017-09-03T11:39:23.697Z,981.7
2017-09-03T11:40:25.847Z,981.6
2017-09-03T11:41:27.986Z,981.6
2017-09-03T11:42:30.089Z,981.6
2017-09-03T11:43:32.591Z,981.6
2017-09-03T11:44:34.763Z,981.7
2017-09-03T11:45:36.881Z,981.6
2017-09-03T11:46:39.074Z,981.5
2017-09-03T11:47:41.252Z,981.5
2017-09-03T11:48:43.754Z,981.5
2017-09-03T11:49:45.818Z,981.6
2017-09-03T11:50:47.881Z,981.5
2017-09-03T11:51:49.964Z,981.5
2017-09-03T11:52:51.997Z,981.5
2017-09-03T11:53:54.486Z,981.5
2017-09-03T11:54:56.634Z,981.6
2017-09-03T11:55:58.809Z,981.5
2017-09-03T11:57:00.933Z,981.5
2017-09-03T11:58:03.064Z,981.4
2017-09-03T11:59:05.565Z,981.4
2017-09-03T12:00:07.687Z,981.4
2017-09-03T12:01:09.859Z,981.5
2017-09-03T12:02:12.005Z,981.4
2017-09-03T12:03:14.181Z,981.5
2017-09-03T12:04:16.616Z,981.4
2017-09-03T12:05:18.756Z,981.5
2017-09-03T12:06:20.931Z,981.4
2017-09-03T12:07:23.077Z,981.4
2017-09-03T12:08:25.194Z,981.3
2017-09-03T12:09:27.580Z,981.4
2017-09-03T12:10:29.817Z,981.3
2017-09-03T12:11:31.937Z,981.3
2017-09-03T12:12:34.222Z,981.4
2017-09-03T12:13:36.399Z,981.4
2017-09-03T12:14:38.959Z,981.3
2017-09-03T12:15:41.085Z,981.4
2017-09-03T12:16:43.284Z,981.3
2017-09-03T12:17:45.471Z,981.3
2017-09-03T12:18:47.571Z,981.3
2017-09-03T12:19:50.050Z,981.2
2017-09-03T12:20:52.198Z,981.3
2017-09-03T12:21:54.395Z,981.2
2017-09-03T12:22:56.669Z,981.2
2017-09-03T12:23:58.828Z,981.2
2017-09-03T12:25:01.229Z,981.1
2017-09-03T12:26:03.312Z,981.1
2017-09-03T12:27:05.404Z,981.1
2017-09-03T12:28:07.579Z,981.1
2017-09-03T12:29:09.711Z,981.2
2017-09-03T12:30:12.232Z,981.1
2017-09-03T12:31:14.385Z,981.1
2017-09-03T12:32:16.577Z,981
2017-09-03T12:33:18.770Z,981.1
2017-09-03T12:34:20.898Z,981
2017-09-03T12:35:23.301Z,981.1
2017-09-03T12:36:25.528Z,981.1
2017-09-03T12:37:27.646Z,981
2017-09-03T12:38:29.776Z,981
2017-09-03T12:39:31.899Z,980.9
2017-09-03T12:40:34.315Z,981
2017-09-03T12:41:36.451Z,980.9
2017-09-03T12:42:38.587Z,980.9
2017-09-03T12:43:40.739Z,981
2017-09-03T12:44:42.844Z,981
2017-09-03T12:45:45.261Z,981
2017-09-03T12:46:47.533Z,980.9
2017-09-03T12:47:49.718Z,980.9
2017-09-03T12:48:51.825Z,980.8
2017-09-03T12:49:53.972Z,980.9
2017-09-03T12:50:56.415Z,980.9
2017-09-03T12:51:58.606Z,980.8
2017-09-03T12:53:00.837Z,980.8
2017-09-03T12:54:03.042Z,980.8
2017-09-03T12:55:05.304Z,980.8
2017-09-03T12:56:09.448Z,980.8
2017-09-03T12:57:11.814Z,980.8
2017-09-03T12:58:14.013Z,980.8
2017-09-03T12:59:16.179Z,980.7
2017-09-03T13:00:18.305Z,980.7
2017-09-03T13:01:20.757Z,980.7
2017-09-03T13:02:22.836Z,980.7
2017-09-03T13:03:24.974Z,980.7
2017-09-03T13:04:27.082Z,980.8
2017-09-03T13:05:29.186Z,980.7
2017-09-03T13:06:31.567Z,980.7
2017-09-03T13:07:33.685Z,980.6
2017-09-03T13:08:35.874Z,980.6
2017-09-03T13:09:38.011Z,980.6
2017-09-03T13:10:40.121Z,980.6
2017-09-03T13:11:42.562Z,980.6
2017-09-03T13:12:44.658Z,980.6
2017-09-03T13:13:46.804Z,980.6
2017-09-03T13:14:48.909Z,980.6
2017-09-03T13:15:51.014Z,980.6
2017-09-03T13:16:53.399Z,980.5
2017-09-03T13:17:55.541Z,980.6
2017-09-03T13:18:57.681Z,980.6
2017-09-03T13:19:59.783Z,980.5
2017-09-03T13:21:01.917Z,980.5
2017-09-03T13:22:04.446Z,980.6
2017-09-03T13:23:06.613Z,980.6
2017-09-03T13:24:08.757Z,980.5